createdAt,value
2022-12-05T00:00:03.957Z,3.8
2022-12-05T00:01:03.963Z,3.7
2022-12-05T00:02:04.039Z,3.8
2022-12-05T00:03:03.965Z,3.9
2022-12-05T00:04:04.000Z,4
2022-12-05T00:05:03.964Z,3.9
2022-12-05T00:06:03.958Z,3.4
2022-12-05T00:07:03.962Z,3.7
2022-12-05T00:08:04.064Z,3.8
2022-12-05T00:09:03.961Z,3.8
2022-12-05T00:10:03.986Z,3.8
2022-12-05T00:11:03.957Z,3.9
2022-12-05T00:12:03.958Z,4
2022-12-05T00:13:03.954Z,4.1
2022-12-05T00:14:03.958Z,4.1
2022-12-05T00:15:03.956Z,4.1
2022-12-05T00:16:03.955Z,4.1
2022-12-05T00:17:04.111Z,3.9
2022-12-05T00:18:03.960Z,4
2022-12-05T00:19:03.961Z,4.1
2022-12-05T00:20:03.951Z,4
2022-12-05T00:21:03.963Z,3.9
2022-12-05T00:22:03.956Z,4.1
2022-12-05T00:23:03.953Z,4.1
2022-12-05T00:24:03.957Z,4
2022-12-05T00:25:03.957Z,4
2022-12-05T00:26:03.952Z,3.8
2022-12-05T00:27:03.959Z,3.9
2022-12-05T00:28:03.954Z,3.9
2022-12-05T00:29:03.970Z,3.9
2022-12-05T00:30:03.954Z,3.9
2022-12-05T00:31:03.949Z,3.6
2022-12-05T00:32:04.036Z,3.4
2022-12-05T00:33:03.963Z,3.7
2022-12-05T00:34:03.983Z,3.9
2022-12-05T00:35:03.957Z,3.6
2022-12-05T00:36:04.036Z,3.9
2022-12-05T00:37:03.947Z,4
2022-12-05T00:38:03.960Z,4
2022-12-05T00:39:03.983Z,4
2022-12-05T00:40:03.953Z,3.9
2022-12-05T00:41:03.961Z,3.9
2022-12-05T00:42:03.972Z,3.9
2022-12-05T00:43:03.998Z,4
2022-12-05T00:44:03.964Z,3.5
2022-12-05T00:46:03.990Z,3.8
2022-12-05T00:47:03.955Z,3.1
2022-12-05T00:48:03.950Z,3.4
2022-12-05T00:49:03.989Z,3.3
2022-12-05T00:50:03.962Z,3
2022-12-05T00:51:03.957Z,3.4
2022-12-05T00:52:03.968Z,3.3
2022-12-05T00:53:03.949Z,2.7
2022-12-05T00:54:03.951Z,3.1
2022-12-05T00:55:03.950Z,3.3
2022-12-05T00:56:03.960Z,3.7
2022-12-05T00:57:03.960Z,3.8
2022-12-05T00:58:03.952Z,2.9
2022-12-05T00:59:03.992Z,3
2022-12-05T01:00:03.948Z,3
2022-12-05T01:01:04.013Z,3.3
2022-12-05T01:02:03.973Z,2.9
2022-12-05T01:03:04.009Z,2.7
2022-12-05T01:04:03.953Z,2.8
2022-12-05T01:05:03.952Z,3.4
2022-12-05T01:06:03.955Z,3.6
2022-12-05T01:07:03.957Z,3
2022-12-05T01:08:04.000Z,3.4
2022-12-05T01:09:03.966Z,3.5
2022-12-05T01:10:03.977Z,3.2
2022-12-05T01:11:03.954Z,3.3
2022-12-05T01:12:03.960Z,3.6
2022-12-05T01:13:03.948Z,3
2022-12-05T01:14:03.950Z,3.3
2022-12-05T01:15:03.949Z,3.5
2022-12-05T01:16:03.957Z,3.7
2022-12-05T01:17:04.040Z,3.9
2022-12-05T01:18:03.958Z,3.8
2022-12-05T01:19:03.951Z,2.9
2022-12-05T01:20:03.992Z,3.3
2022-12-05T01:21:04.008Z,3.6
2022-12-05T01:22:03.955Z,2.9
2022-12-05T01:23:03.949Z,2.8
2022-12-05T01:24:03.969Z,3.1
2022-12-05T01:25:03.947Z,2.9
2022-12-05T01:26:03.953Z,3.3
2022-12-05T01:27:03.951Z,3.7
2022-12-05T01:28:03.945Z,3.9
2022-12-05T01:29:04.023Z,3.7
2022-12-05T01:30:03.952Z,3.9
2022-12-05T01:31:03.952Z,3.9
2022-12-05T01:32:03.997Z,4
2022-12-05T01:33:03.948Z,4.1
2022-12-05T01:34:03.945Z,3.9
2022-12-05T01:35:03.951Z,4.1
2022-12-05T01:36:03.951Z,4.2
2022-12-05T01:37:03.944Z,4.1
2022-12-05T01:38:03.942Z,4.1
2022-12-05T01:39:04.009Z,4.2
2022-12-05T01:41:03.982Z,4.1
2022-12-05T01:42:03.954Z,4.1
2022-12-05T01:43:03.953Z,4.1
2022-12-05T01:44:03.957Z,4.1
2022-12-05T01:44:56.953Z,4.1
2022-12-05T01:46:04.065Z,4.1
2022-12-05T01:47:03.964Z,4
2022-12-05T01:48:03.958Z,4
2022-12-05T01:49:03.951Z,4
2022-12-05T01:50:03.960Z,4.1
2022-12-05T01:51:03.948Z,4.1
2022-12-05T01:52:03.943Z,4.1
2022-12-05T01:54:03.944Z,4.1
2022-12-05T01:55:03.944Z,3.7
2022-12-05T01:56:03.938Z,3.9
2022-12-05T01:57:03.939Z,3.5
2022-12-05T01:58:03.947Z,3.7
2022-12-05T01:59:03.950Z,3.9
2022-12-05T02:00:03.956Z,4
2022-12-05T02:02:03.991Z,3.9
2022-12-05T02:03:03.943Z,4
2022-12-05T02:05:03.948Z,4
2022-12-05T02:06:03.935Z,4
2022-12-05T02:07:03.958Z,3.8
2022-12-05T02:08:03.992Z,3.9
2022-12-05T02:10:03.946Z,4
2022-12-05T02:11:03.944Z,4.1
2022-12-05T02:13:03.947Z,4.2
2022-12-05T02:15:03.948Z,4.3
2022-12-05T02:16:04.029Z,4.3
2022-12-05T02:17:04.057Z,4.3
2022-12-05T02:18:03.954Z,4.1
2022-12-05T02:19:03.945Z,4.1
2022-12-05T02:21:03.945Z,4.1
2022-12-05T02:22:03.949Z,4.1
2022-12-05T02:26:03.940Z,4.1
2022-12-05T02:27:03.937Z,4.1
2022-12-05T02:28:03.974Z,4.1
2022-12-05T02:29:03.949Z,4.2
2022-12-05T02:30:03.937Z,4.2
2022-12-05T02:31:04.003Z,4
2022-12-05T02:32:03.934Z,3.7
2022-12-05T02:33:03.943Z,4
2022-12-05T02:34:03.940Z,4.2
2022-12-05T02:35:03.939Z,4
2022-12-05T02:37:03.952Z,4.2
2022-12-05T02:38:03.940Z,4
2022-12-05T02:39:03.946Z,4.1
2022-12-05T02:40:03.938Z,4.1
2022-12-05T02:41:03.938Z,4.2
2022-12-05T02:42:03.938Z,4.2
2022-12-05T02:43:03.938Z,4
2022-12-05T02:45:03.942Z,3.1
2022-12-05T02:46:04.006Z,3.7
2022-12-05T02:47:03.948Z,3.9
2022-12-05T02:48:03.939Z,3.9
2022-12-05T02:50:03.941Z,4.2
2022-12-05T02:51:03.939Z,3.9
2022-12-05T02:52:03.972Z,3.8
2022-12-05T02:53:03.944Z,4
2022-12-05T02:55:03.945Z,4.1
2022-12-05T02:56:03.943Z,4.2
2022-12-05T02:58:03.941Z,4.2
2022-12-05T02:59:03.964Z,4.2
2022-12-05T03:00:03.938Z,4.2
2022-12-05T03:01:04.026Z,4.3
2022-12-05T03:03:03.987Z,4.2
2022-12-05T03:04:03.984Z,4.2
2022-12-05T03:05:03.951Z,4.1
2022-12-05T03:06:03.935Z,4.2
2022-12-05T03:09:03.938Z,4.2
2022-12-05T03:11:03.937Z,4.2
2022-12-05T03:12:03.928Z,4.1
2022-12-05T03:14:03.951Z,4.2
2022-12-05T03:17:03.974Z,4.2
2022-12-05T03:21:03.938Z,4.1
2022-12-05T03:22:03.939Z,4
2022-12-05T03:24:03.932Z,4.2
2022-12-05T03:25:03.922Z,4.1
2022-12-05T03:27:03.933Z,4.2
2022-12-05T03:29:03.938Z,4
2022-12-05T03:30:03.971Z,3.9
2022-12-05T03:31:04.005Z,4
2022-12-05T03:32:03.952Z,3.5
2022-12-05T03:33:03.933Z,3.5
2022-12-05T03:34:03.936Z,2.9
2022-12-05T03:35:04.059Z,3.5
2022-12-05T03:36:03.929Z,3.7
2022-12-05T03:37:03.932Z,3.9
2022-12-05T03:38:03.934Z,3.1
2022-12-05T03:40:03.935Z,3.4
2022-12-05T03:41:03.926Z,3.4
2022-12-05T03:42:03.930Z,3.8
2022-12-05T03:43:03.930Z,3.9
2022-12-05T03:45:03.922Z,3.9
2022-12-05T03:46:04.080Z,4
2022-12-05T03:47:03.942Z,3.7
2022-12-05T03:48:03.930Z,2.9
2022-12-05T03:51:03.933Z,3.4
2022-12-05T03:52:03.921Z,3.3
2022-12-05T03:53:20.717Z,3.6
2022-12-05T03:54:03.937Z,3.8
2022-12-05T03:56:03.939Z,3.9
2022-12-05T03:57:03.931Z,3.9
2022-12-05T03:58:03.935Z,4
2022-12-05T03:59:03.928Z,4.1
2022-12-05T04:01:04.032Z,3.6
2022-12-05T04:04:03.934Z,3.8
2022-12-05T04:06:03.925Z,3.8
2022-12-05T04:07:03.968Z,3.9
2022-12-05T04:09:03.929Z,3.8
2022-12-05T04:14:03.935Z,3
2022-12-05T04:15:03.932Z,2.6
2022-12-05T04:16:14.010Z,3.2
2022-12-05T04:17:03.935Z,3
2022-12-05T04:20:03.926Z,2.9
2022-12-05T04:21:03.927Z,2.8
2022-12-05T04:22:03.930Z,2.9
2022-12-05T04:23:03.929Z,2.8
2022-12-05T04:25:03.930Z,3.3
2022-12-05T04:28:03.939Z,3.1
2022-12-05T04:29:04.039Z,3.5
2022-12-05T04:33:03.924Z,3.6
2022-12-05T04:34:03.931Z,3.9
2022-12-05T04:35:03.927Z,4.1
2022-12-05T04:36:03.923Z,4.1
2022-12-05T04:37:04.012Z,3.9
2022-12-05T04:38:03.934Z,3.6
2022-12-05T04:39:03.972Z,3.6
2022-12-05T04:40:03.929Z,3.9
2022-12-05T04:41:04.218Z,4
2022-12-05T04:42:03.936Z,3.8
2022-12-05T04:43:03.922Z,4.1
2022-12-05T04:44:03.940Z,4.3
2022-12-05T04:47:03.962Z,4.4
2022-12-05T04:48:03.929Z,4.2
2022-12-05T04:49:03.974Z,3.9
2022-12-05T04:52:03.935Z,3.6
2022-12-05T04:53:03.925Z,3.5
2022-12-05T04:54:03.931Z,3.7
2022-12-05T04:55:03.935Z,3.8
2022-12-05T04:57:03.934Z,3.8
2022-12-05T04:58:03.931Z,3.8
2022-12-05T05:00:03.938Z,3.8
2022-12-05T05:02:04.020Z,3
2022-12-05T05:03:03.987Z,3
2022-12-05T05:05:03.922Z,3.5
2022-12-05T05:06:03.933Z,3.7
2022-12-05T05:07:03.926Z,3.9
2022-12-05T05:08:04.025Z,4
2022-12-05T05:10:03.925Z,3.9
2022-12-05T05:12:03.935Z,3.2
2022-12-05T05:13:03.927Z,2.9
2022-12-05T05:14:03.917Z,3.5
2022-12-05T05:15:03.922Z,3.9
2022-12-05T05:17:03.929Z,3.7
2022-12-05T05:18:03.949Z,3.6
2022-12-05T05:19:03.926Z,3.9
2022-12-05T05:20:04.272Z,4
2022-12-05T05:21:03.929Z,4.2
2022-12-05T05:22:03.931Z,4.2
2022-12-05T05:23:03.974Z,4
2022-12-05T05:24:03.925Z,4
2022-12-05T05:26:03.926Z,4.3
2022-12-05T05:27:03.927Z,4.3
2022-12-05T05:29:03.927Z,4.3
2022-12-05T05:31:03.959Z,4.3
2022-12-05T05:32:03.920Z,4.3
2022-12-05T05:34:09.450Z,4.3
2022-12-05T05:35:03.922Z,4.4
2022-12-05T05:36:03.928Z,4.5
2022-12-05T05:37:03.930Z,4.4
2022-12-05T05:38:03.917Z,4.4
2022-12-05T05:39:03.929Z,4.4
2022-12-05T05:40:09.226Z,4.2
2022-12-05T05:42:03.927Z,4.3
2022-12-05T05:43:03.927Z,4.3
2022-12-05T05:44:03.930Z,4.3
2022-12-05T05:45:03.926Z,4.4
2022-12-05T05:47:03.996Z,4.3
2022-12-05T05:48:03.919Z,4.4
2022-12-05T05:49:03.960Z,4.3
2022-12-05T05:50:03.932Z,4.3
2022-12-05T05:52:03.929Z,4.4
2022-12-05T05:53:04.006Z,4.2
2022-12-05T05:54:03.925Z,4.4
2022-12-05T05:55:03.923Z,4.4
2022-12-05T05:56:03.919Z,4.4
2022-12-05T05:57:03.926Z,4.4
2022-12-05T05:58:03.922Z,4.4
2022-12-05T06:00:04.068Z,4.4
2022-12-05T06:01:03.923Z,4.2
2022-12-05T06:02:04.128Z,4.2
2022-12-05T06:03:04.059Z,4.2
2022-12-05T06:05:03.925Z,4.3
2022-12-05T06:08:04.013Z,4.2
2022-12-05T06:09:03.922Z,4.3
2022-12-05T06:13:03.919Z,4.5
2022-12-05T06:14:03.928Z,4.3
2022-12-05T06:15:03.920Z,4.3
2022-12-05T06:17:03.937Z,4.3
2022-12-05T06:18:03.923Z,4.4
2022-12-05T06:19:03.922Z,4.3
2022-12-05T06:20:03.951Z,4.3
2022-12-05T06:21:03.931Z,4
2022-12-05T06:22:03.924Z,4.1
2022-12-05T06:23:03.922Z,4.1
2022-12-05T06:25:03.925Z,4.1
2022-12-05T06:26:03.922Z,4.1
2022-12-05T06:28:03.918Z,4.2
2022-12-05T06:29:03.920Z,4.1
2022-12-05T06:30:03.915Z,4.1
2022-12-05T06:31:03.946Z,4.1
2022-12-05T06:33:03.920Z,4.2
2022-12-05T06:34:03.923Z,4.1
2022-12-05T06:35:03.925Z,4.2
2022-12-05T06:36:03.919Z,4.2
2022-12-05T06:37:03.926Z,4.1
2022-12-05T06:38:03.919Z,4.1
2022-12-05T06:39:03.925Z,4
2022-12-05T06:40:03.921Z,4.2
2022-12-05T06:41:03.941Z,4.1
2022-12-05T06:42:03.970Z,4.2
2022-12-05T06:43:03.918Z,4.2
2022-12-05T06:44:03.920Z,4.1
2022-12-05T06:45:03.914Z,4.1
2022-12-05T06:46:03.971Z,4.1
2022-12-05T06:47:03.950Z,4.1
2022-12-05T06:49:03.921Z,4.1
2022-12-05T06:50:03.922Z,4
2022-12-05T06:51:03.946Z,4
2022-12-05T06:52:03.911Z,3.9
2022-12-05T06:54:03.924Z,4
2022-12-05T06:55:03.919Z,4
2022-12-05T06:56:03.923Z,4.1
2022-12-05T06:57:03.996Z,4.1
2022-12-05T06:59:03.913Z,4
2022-12-05T07:00:03.913Z,4
2022-12-05T07:01:03.959Z,4.1
2022-12-05T07:02:03.998Z,4.2
2022-12-05T07:04:03.922Z,4.2
2022-12-05T07:05:03.920Z,4.1
2022-12-05T07:07:03.922Z,4.2
2022-12-05T07:08:03.982Z,4.1
2022-12-05T07:09:03.933Z,4.1
2022-12-05T07:10:03.912Z,4
2022-12-05T07:12:04.012Z,4.1
2022-12-05T07:13:03.931Z,4.1
2022-12-05T07:15:03.913Z,4
2022-12-05T07:17:04.294Z,3.9
2022-12-05T07:18:03.925Z,3.9
2022-12-05T07:19:03.922Z,3.9
2022-12-05T07:20:03.918Z,3.9
2022-12-05T07:21:11.824Z,3.9
2022-12-05T07:22:03.948Z,3.9
2022-12-05T07:23:03.922Z,3.9
2022-12-05T07:26:03.915Z,3.8
2022-12-05T07:27:03.929Z,3.8
2022-12-05T07:28:03.916Z,3.9
2022-12-05T07:29:03.920Z,3.8
2022-12-05T07:31:03.936Z,3.7
2022-12-05T07:32:04.005Z,3.7
2022-12-05T07:33:03.916Z,3.8
2022-12-05T07:34:03.908Z,3.7
2022-12-05T07:36:03.920Z,3.7
2022-12-05T07:37:03.919Z,3.7
2022-12-05T07:38:03.982Z,3.7
2022-12-05T07:39:03.926Z,3.6
2022-12-05T07:40:03.915Z,3.5
2022-12-05T07:41:05.227Z,3.4
2022-12-05T07:42:03.930Z,3.4
2022-12-05T07:44:03.919Z,2.7
2022-12-05T07:48:03.953Z,2.6
2022-12-05T07:49:03.913Z,2.8
2022-12-05T07:51:04.016Z,2.5
2022-12-05T07:53:03.940Z,1.8
2022-12-05T07:54:03.919Z,1.2
2022-12-05T07:58:04.011Z,2.2
2022-12-05T07:59:03.916Z,2.5
2022-12-05T08:01:03.958Z,2.7
2022-12-05T08:02:03.979Z,2.8
2022-12-05T08:03:03.921Z,2.8
2022-12-05T08:04:03.985Z,2.8
2022-12-05T08:06:03.919Z,2.9
2022-12-05T08:09:03.923Z,2.8
2022-12-05T08:10:03.912Z,2.7
2022-12-05T08:11:03.937Z,2.9
2022-12-05T08:15:03.912Z,3
2022-12-05T08:18:03.968Z,2.9
2022-12-05T08:19:03.915Z,3
2022-12-05T08:20:03.914Z,2.8
2022-12-05T08:21:03.910Z,2.7
2022-12-05T08:22:03.916Z,2.9
2022-12-05T08:23:03.909Z,3
2022-12-05T08:25:03.959Z,2.9
2022-12-05T08:28:03.912Z,2.9
2022-12-05T08:29:03.915Z,2.7
2022-12-05T08:30:03.929Z,2.9
2022-12-05T08:32:04.000Z,3.1
2022-12-05T08:33:03.905Z,2.8
2022-12-05T08:34:03.919Z,2.9
2022-12-05T08:35:03.919Z,3.1
2022-12-05T08:37:03.907Z,3
2022-12-05T08:38:03.908Z,3
2022-12-05T08:40:03.908Z,3.1
2022-12-05T08:41:03.906Z,3.2
2022-12-05T08:42:03.912Z,3.3
2022-12-05T08:43:03.910Z,3.3
2022-12-05T08:45:03.903Z,1.7
2022-12-05T08:46:03.985Z,1.4
2022-12-05T08:47:03.913Z,1.7
2022-12-05T08:48:03.913Z,1.7
2022-12-05T08:50:03.909Z,1.8
2022-12-05T08:51:03.910Z,2
2022-12-05T08:52:03.901Z,2.3
2022-12-05T08:53:03.974Z,2.5
2022-12-05T08:55:03.936Z,2.9
2022-12-05T08:56:03.902Z,3.1
2022-12-05T08:57:03.929Z,3.1
2022-12-05T08:58:03.910Z,3.2
2022-12-05T08:59:06.037Z,3.3
2022-12-05T09:01:03.972Z,3.3
2022-12-05T09:02:04.013Z,3.3
2022-12-05T09:03:04.061Z,3.2
2022-12-05T09:04:03.906Z,3.4
2022-12-05T09:06:03.908Z,3.6
2022-12-05T09:07:03.950Z,3.7
2022-12-05T09:08:03.996Z,3.3
2022-12-05T09:09:03.916Z,3.6
2022-12-05T09:11:03.911Z,3.8
2022-12-05T09:12:03.901Z,3.6
2022-12-05T09:13:03.906Z,3.4
2022-12-05T09:14:03.951Z,3
2022-12-05T09:15:03.908Z,3.4
2022-12-05T09:16:04.024Z,3.3
2022-12-05T09:17:03.901Z,3.6
2022-12-05T09:19:03.910Z,3.5
2022-12-05T09:20:03.911Z,3.5
2022-12-05T09:21:03.910Z,3.7
2022-12-05T09:22:03.923Z,3.7
2022-12-05T09:23:03.912Z,3.7
2022-12-05T09:24:03.909Z,3.8
2022-12-05T09:25:03.903Z,3.9
2022-12-05T09:26:03.930Z,3.9
2022-12-05T09:27:03.906Z,3.9
2022-12-05T09:28:03.976Z,4
2022-12-05T09:30:03.902Z,4
2022-12-05T09:32:03.919Z,4.1
2022-12-05T09:33:03.923Z,4.1
2022-12-05T09:35:03.979Z,4.1
2022-12-05T09:38:03.901Z,4.2
2022-12-05T09:40:03.904Z,4.4
2022-12-05T09:42:03.907Z,4.4
2022-12-05T09:44:03.971Z,4.4
2022-12-05T09:46:03.947Z,4.4
2022-12-05T09:47:03.911Z,4.4
2022-12-05T09:49:03.907Z,4.4
2022-12-05T09:50:03.911Z,4.2
2022-12-05T09:52:03.914Z,4.2
2022-12-05T09:53:03.906Z,4.3
2022-12-05T09:54:03.909Z,4.4
2022-12-05T09:55:03.907Z,4.4
2022-12-05T09:56:03.914Z,3.8
2022-12-05T09:57:03.958Z,4.2
2022-12-05T09:58:03.950Z,4.4
2022-12-05T10:00:03.905Z,4.4
2022-12-05T10:01:03.898Z,4.4
2022-12-05T10:03:03.912Z,4.4
2022-12-05T10:04:03.910Z,4.3
2022-12-05T10:05:04.187Z,4.2
2022-12-05T10:06:03.911Z,4.3
2022-12-05T10:08:03.981Z,4
2022-12-05T10:10:04.674Z,4.2
2022-12-05T10:11:03.904Z,4.3
2022-12-05T10:12:03.953Z,4.3
2022-12-05T10:13:03.906Z,4.4
2022-12-05T10:14:03.901Z,4.2
2022-12-05T10:15:03.918Z,4.2
2022-12-05T10:16:03.962Z,4.3
2022-12-05T10:18:03.898Z,4.4
2022-12-05T10:19:03.951Z,4.3
2022-12-05T10:21:03.909Z,4.4
2022-12-05T10:22:03.907Z,4.4
2022-12-05T10:23:03.909Z,4.5
2022-12-05T10:26:03.901Z,4.5
2022-12-05T10:27:03.899Z,4.5
2022-12-05T10:28:03.950Z,4.5
2022-12-05T10:29:03.917Z,4.4
2022-12-05T10:31:03.953Z,4.4
2022-12-05T10:32:03.898Z,4
2022-12-05T10:33:09.315Z,4.2
2022-12-05T10:34:03.905Z,4.2
2022-12-05T10:36:03.902Z,4.4
2022-12-05T10:38:03.897Z,4.5
2022-12-05T10:39:09.886Z,4.5
2022-12-05T10:42:03.898Z,4.5
2022-12-05T10:43:03.924Z,4.6
2022-12-05T10:44:03.912Z,4.7
2022-12-05T10:47:03.977Z,4.7
2022-12-05T10:49:03.903Z,4.7
2022-12-05T10:50:03.921Z,4.6
2022-12-05T10:51:03.963Z,4.3
2022-12-05T10:52:03.899Z,4.4
2022-12-05T10:54:03.907Z,4.4
2022-12-05T10:55:03.905Z,4.4
2022-12-05T10:56:29.918Z,4.3
2022-12-05T10:59:03.941Z,4.4
2022-12-05T11:00:03.956Z,4.5
2022-12-05T11:03:03.900Z,4
2022-12-05T11:04:06.864Z,4.2
2022-12-05T11:05:04.303Z,3.7
2022-12-05T11:06:03.907Z,4.1
2022-12-05T11:07:03.912Z,4.2
2022-12-05T11:08:03.954Z,4.2
2022-12-05T11:09:05.367Z,4.1
2022-12-05T11:10:03.904Z,4.3
2022-12-05T11:11:03.914Z,4.3
2022-12-05T11:12:03.903Z,4.1
2022-12-05T11:14:03.922Z,4.3
2022-12-05T11:15:03.911Z,4.4
2022-12-05T11:16:04.041Z,4.3
2022-12-05T11:17:03.918Z,4.4
2022-12-05T11:19:03.910Z,4.4
2022-12-05T11:20:03.907Z,3.9
2022-12-05T11:21:03.923Z,4
2022-12-05T11:22:03.901Z,4.1
2022-12-05T11:24:03.900Z,4.2
2022-12-05T11:25:03.898Z,4.3
2022-12-05T11:26:03.909Z,4.3
2022-12-05T11:27:03.902Z,4.4
2022-12-05T11:28:03.910Z,4
2022-12-05T11:29:03.909Z,4.2
2022-12-05T11:30:03.938Z,4.3
2022-12-05T11:31:03.953Z,4.3
2022-12-05T11:32:03.894Z,4.2
2022-12-05T11:33:03.907Z,4.1
2022-12-05T11:35:03.910Z,4.3
2022-12-05T11:38:05.002Z,4.1
2022-12-05T11:39:03.906Z,3.9
2022-12-05T11:40:03.912Z,3.8
2022-12-05T11:42:03.903Z,3.9
2022-12-05T11:43:03.898Z,4
2022-12-05T11:44:03.897Z,4.1
2022-12-05T11:45:03.901Z,4
2022-12-05T11:48:03.908Z,3.9
2022-12-05T11:49:03.904Z,3.8
2022-12-05T11:50:03.915Z,3.6
2022-12-05T11:52:03.982Z,3.3
2022-12-05T11:53:03.903Z,3.4
2022-12-05T11:55:05.729Z,3.7
2022-12-05T11:56:03.899Z,3.8
2022-12-05T11:57:03.906Z,3.8
2022-12-05T11:58:03.897Z,3.6
2022-12-05T12:00:03.898Z,3.7
2022-12-05T12:01:03.923Z,3.7
2022-12-05T12:02:04.010Z,3.3
2022-12-05T12:06:03.923Z,3.5
2022-12-05T12:08:04.033Z,3.6
2022-12-05T12:09:03.907Z,3.5
2022-12-05T12:10:09.505Z,3.6
2022-12-05T12:11:03.907Z,3.3
2022-12-05T12:12:03.912Z,3.6
2022-12-05T12:13:03.961Z,3.5
2022-12-05T12:14:03.900Z,3.7
2022-12-05T12:17:04.007Z,3.6
2022-12-05T12:19:03.904Z,3.6
2022-12-05T12:20:03.951Z,3.5
2022-12-05T12:23:03.897Z,3
2022-12-05T12:24:03.904Z,2.5
2022-12-05T12:27:03.903Z,2.6
2022-12-05T12:28:04.675Z,2.6
2022-12-05T12:29:03.907Z,3
2022-12-05T12:30:03.909Z,2.6
2022-12-05T12:31:03.897Z,3
2022-12-05T12:32:03.983Z,3.3
2022-12-05T12:33:03.906Z,3.5
2022-12-05T12:35:03.896Z,3.7
2022-12-05T12:36:03.893Z,3.7
2022-12-05T12:36:59.049Z,3.7
2022-12-05T12:38:04.128Z,3.4
2022-12-05T12:39:03.893Z,3.1
2022-12-05T12:40:03.902Z,3.3
2022-12-05T12:41:03.900Z,3.5
2022-12-05T12:42:03.908Z,3.3
2022-12-05T12:43:03.971Z,3.3
2022-12-05T12:47:03.898Z,3.3
2022-12-05T12:48:03.897Z,3.2
2022-12-05T12:52:03.899Z,2.7
2022-12-05T12:53:03.921Z,2.9
2022-12-05T12:57:03.900Z,3.7
2022-12-05T13:00:03.891Z,3.9
2022-12-05T13:01:03.941Z,3.9
2022-12-05T13:02:03.946Z,3.8
2022-12-05T13:05:03.901Z,3.8
2022-12-05T13:06:03.901Z,3.4
2022-12-05T13:09:03.901Z,3.3
2022-12-05T13:10:03.894Z,3.4
2022-12-05T13:13:03.912Z,3.4
2022-12-05T13:14:03.912Z,3.5
2022-12-05T13:15:03.901Z,3.6
2022-12-05T13:16:03.949Z,3.6
2022-12-05T13:18:03.901Z,3.4
2022-12-05T13:19:03.892Z,3.3
2022-12-05T13:21:03.889Z,2.9
2022-12-05T13:22:03.890Z,3
2022-12-05T13:23:07.957Z,2.8
2022-12-05T13:24:03.958Z,3
2022-12-05T13:26:03.899Z,2.9
2022-12-05T13:27:03.898Z,3
2022-12-05T13:29:03.901Z,3.2
2022-12-05T13:30:06.974Z,2.9
2022-12-05T13:32:04.038Z,2.7
2022-12-05T13:33:03.899Z,2.8
2022-12-05T13:34:03.926Z,3
2022-12-05T13:35:03.897Z,3.2
2022-12-05T13:36:03.894Z,3.2
2022-12-05T13:37:03.902Z,3.2
2022-12-05T13:38:03.895Z,3.2
2022-12-05T13:39:03.936Z,3.1
2022-12-05T13:40:03.900Z,2.9
2022-12-05T13:42:03.899Z,3
2022-12-05T13:43:03.884Z,3.1
2022-12-05T13:44:06.769Z,2.8
2022-12-05T13:45:03.900Z,2.7
2022-12-05T13:47:03.904Z,2.5
2022-12-05T13:48:03.899Z,2.5
2022-12-05T13:49:06.744Z,2.4
2022-12-05T13:50:03.901Z,2.5
2022-12-05T13:51:03.901Z,2.7
2022-12-05T13:53:03.958Z,2.9
2022-12-05T13:54:03.892Z,2.6
2022-12-05T13:55:03.896Z,2.6
2022-12-05T13:56:03.900Z,2.6
2022-12-05T13:58:03.898Z,2.5
2022-12-05T13:59:03.901Z,2.6
2022-12-05T14:00:03.968Z,2.8
2022-12-05T14:01:03.931Z,2.9
2022-12-05T14:03:03.967Z,2.2
2022-12-05T14:04:03.898Z,2.2
2022-12-05T14:06:03.900Z,2.3
2022-12-05T14:08:04.231Z,2.6
2022-12-05T14:09:04.533Z,2.9
2022-12-05T14:11:03.899Z,3.1
2022-12-05T14:13:03.898Z,2.9
2022-12-05T14:14:05.113Z,2.7
2022-12-05T14:15:04.111Z,2.7
2022-12-05T14:16:03.892Z,2.3
2022-12-05T14:17:03.889Z,2.3
2022-12-05T14:18:03.898Z,2.5
2022-12-05T14:19:03.892Z,2.6
2022-12-05T14:20:03.895Z,2.7
2022-12-05T14:21:03.937Z,2.8
2022-12-05T14:22:03.906Z,3
2022-12-05T14:23:03.901Z,3
2022-12-05T14:24:03.892Z,3
2022-12-05T14:25:03.898Z,3
2022-12-05T14:27:03.910Z,2.9
2022-12-05T14:28:03.909Z,2.9
2022-12-05T14:29:03.903Z,2.6
2022-12-05T14:30:03.890Z,2.6
2022-12-05T14:32:04.632Z,2.2
2022-12-05T14:33:03.890Z,2.2
2022-12-05T14:34:03.892Z,2.1
2022-12-05T14:36:03.999Z,2.6
2022-12-05T14:37:03.895Z,2.6
2022-12-05T14:38:03.910Z,2.6
2022-12-05T14:39:03.898Z,2.6
2022-12-05T14:40:03.897Z,2.4
2022-12-05T14:41:06.687Z,2.4
2022-12-05T14:42:03.932Z,2.1
2022-12-05T14:43:03.920Z,2.3
2022-12-05T14:45:03.897Z,2.3
2022-12-05T14:48:03.899Z,2.2
2022-12-05T14:49:03.893Z,2.2
2022-12-05T14:50:04.278Z,2.3
2022-12-05T14:51:03.962Z,2.2
2022-12-05T14:52:03.896Z,2.2
2022-12-05T14:53:03.893Z,2.4
2022-12-05T14:55:03.903Z,2.2
2022-12-05T14:59:03.889Z,2.4
2022-12-05T15:00:03.894Z,2.4
2022-12-05T15:01:03.986Z,2.3
2022-12-05T15:02:03.931Z,2.2
2022-12-05T15:03:03.899Z,2.2
2022-12-05T15:04:03.934Z,2.3
2022-12-05T15:05:03.899Z,1.9
2022-12-05T15:06:04.159Z,2
2022-12-05T15:07:03.924Z,1.8
2022-12-05T15:11:03.888Z,2
2022-12-05T15:12:09.427Z,1.7
2022-12-05T15:14:03.891Z,2.2
2022-12-05T15:15:03.887Z,2.3
2022-12-05T15:16:04.113Z,2.2
2022-12-05T15:17:03.889Z,2.3
2022-12-05T15:18:03.895Z,2.3
2022-12-05T15:19:03.891Z,2.3
2022-12-05T15:20:03.922Z,2.5
2022-12-05T15:21:03.895Z,2.4
2022-12-05T15:22:03.899Z,2.4
2022-12-05T15:24:03.889Z,2.6
2022-12-05T15:25:03.898Z,2.5
2022-12-05T15:26:23.854Z,2.5
2022-12-05T15:29:03.892Z,2.3
2022-12-05T15:30:03.890Z,2.3
2022-12-05T15:31:03.909Z,2.5
2022-12-05T15:34:03.885Z,2.5
2022-12-05T15:35:03.894Z,2.3
2022-12-05T15:36:03.891Z,2.4
2022-12-05T15:37:03.885Z,2.3
2022-12-05T15:39:03.885Z,2.5
2022-12-05T15:41:03.898Z,1.8
2022-12-05T15:42:03.882Z,2.1
2022-12-05T15:44:03.887Z,2.3
2022-12-05T15:45:03.896Z,2.3
2022-12-05T15:46:03.963Z,2.1
2022-12-05T15:47:03.889Z,2.2
2022-12-05T15:49:03.887Z,2.1
2022-12-05T15:51:03.889Z,2.3
2022-12-05T15:52:03.893Z,2
2022-12-05T15:54:03.949Z,2.3
2022-12-05T15:57:03.883Z,2.1
2022-12-05T15:59:03.890Z,2.3
2022-12-05T16:04:03.896Z,2
2022-12-05T16:05:03.885Z,1.6
2022-12-05T16:06:03.892Z,1.7
2022-12-05T16:07:03.896Z,1.8
2022-12-05T16:09:07.521Z,1.7
2022-12-05T16:10:03.894Z,2
2022-12-05T16:12:03.886Z,2
2022-12-05T16:13:03.883Z,1.7
2022-12-05T16:14:03.885Z,1.6
2022-12-05T16:15:03.886Z,1.6
2022-12-05T16:17:04.012Z,1.3
2022-12-05T16:19:03.891Z,1.4
2022-12-05T16:20:03.876Z,1.4
2022-12-05T16:22:03.897Z,1.3
2022-12-05T16:23:03.889Z,1.3
2022-12-05T16:24:03.961Z,1.7
2022-12-05T16:25:03.895Z,1.8
2022-12-05T16:26:03.901Z,1.9
2022-12-05T16:28:03.889Z,1.8
2022-12-05T16:29:03.913Z,1.8
2022-12-05T16:30:03.889Z,1.8
2022-12-05T16:31:03.968Z,1.9
2022-12-05T16:33:03.881Z,2
2022-12-05T16:34:03.887Z,1.8
2022-12-05T16:36:03.892Z,1.9
2022-12-05T16:38:03.964Z,1.4
2022-12-05T16:39:03.886Z,1.3
2022-12-05T16:40:03.905Z,1.6
2022-12-05T16:41:03.886Z,1.5
2022-12-05T16:43:03.883Z,1.7
2022-12-05T16:44:08.866Z,1.6
2022-12-05T16:45:03.964Z,1.7
2022-12-05T16:46:03.992Z,1.8
2022-12-05T16:47:03.929Z,1.8
2022-12-05T16:48:03.876Z,1.9
2022-12-05T16:49:03.889Z,1.8
2022-12-05T16:50:03.884Z,1.6
2022-12-05T16:51:03.908Z,1.4
2022-12-05T16:52:03.934Z,1.6
2022-12-05T16:53:03.891Z,1.6
2022-12-05T16:54:03.891Z,1.3
2022-12-05T16:55:03.890Z,1.4
2022-12-05T16:56:03.888Z,1.5
2022-12-05T16:57:03.877Z,1.5
2022-12-05T16:59:03.884Z,1.6
2022-12-05T17:01:03.928Z,1.8
2022-12-05T17:04:03.924Z,1.8
2022-12-05T17:05:03.891Z,1.9
2022-12-05T17:08:04.003Z,1.6
2022-12-05T17:09:03.879Z,1.4
2022-12-05T17:10:03.890Z,1.7
2022-12-05T17:12:03.880Z,1.3
2022-12-05T17:13:03.874Z,1
2022-12-05T17:14:03.880Z,1.1
2022-12-05T17:15:03.878Z,0.9
2022-12-05T17:17:03.879Z,1.4
2022-12-05T17:19:03.881Z,1.5
2022-12-05T17:20:03.894Z,1.7
2022-12-05T17:21:03.883Z,1.5
2022-12-05T17:22:03.940Z,1.7
2022-12-05T17:23:03.881Z,1.7
2022-12-05T17:24:03.886Z,1.6
2022-12-05T17:25:03.896Z,1.7
2022-12-05T17:26:03.986Z,1.8
2022-12-05T17:27:03.882Z,1.8
2022-12-05T17:28:03.915Z,2
2022-12-05T17:29:03.884Z,1.7
2022-12-05T17:30:03.891Z,1.7
2022-12-05T17:31:03.909Z,1.8
2022-12-05T17:32:04.033Z,1.8
2022-12-05T17:33:03.882Z,2
2022-12-05T17:34:03.880Z,1.9
2022-12-05T17:35:06.946Z,2
2022-12-05T17:36:03.948Z,1.9
2022-12-05T17:37:03.882Z,1.8
2022-12-05T17:38:03.877Z,1.6
2022-12-05T17:39:03.882Z,1.6
2022-12-05T17:40:03.877Z,1.8
2022-12-05T17:41:07.057Z,1.9
2022-12-05T17:42:03.923Z,1.9
2022-12-05T17:43:03.910Z,1.5
2022-12-05T17:44:03.877Z,1.5
2022-12-05T17:45:03.884Z,1.2
2022-12-05T17:46:03.875Z,1.5
2022-12-05T17:49:03.916Z,1.9
2022-12-05T17:50:03.882Z,1.7
2022-12-05T17:51:03.904Z,1.7
2022-12-05T17:53:07.361Z,2.1
2022-12-05T17:54:03.875Z,2
2022-12-05T17:56:03.877Z,1.6
2022-12-05T17:57:56.943Z,1.6
2022-12-05T17:59:07.283Z,1.6
2022-12-05T18:01:04.044Z,1.6
2022-12-05T18:02:03.877Z,1.8
2022-12-05T18:03:04.720Z,1.7
2022-12-05T18:04:03.877Z,1.8
2022-12-05T18:06:03.885Z,1.8
2022-12-05T18:07:03.881Z,2
2022-12-05T18:09:03.877Z,2
2022-12-05T18:10:08.220Z,2.1
2022-12-05T18:11:03.897Z,1.8
2022-12-05T18:12:03.882Z,2
2022-12-05T18:14:03.883Z,1.7
2022-12-05T18:15:03.880Z,1.9
2022-12-05T18:16:03.954Z,1.9
2022-12-05T18:17:03.878Z,1.7
2022-12-05T18:19:03.884Z,1.9
2022-12-05T18:20:03.934Z,1.9
2022-12-05T18:22:03.879Z,2
2022-12-05T18:23:03.914Z,2
2022-12-05T18:24:03.882Z,2
2022-12-05T18:25:03.920Z,2
2022-12-05T18:28:03.880Z,1.8